DAL353 KJFK-KLAX
Flight info
| Callsign | DAL353 |
|---|---|
| Flight time | N/A |
| Altitude | 36000 |
| Route | RBV Q430 AIR J80 JAAVE/N0475F380 J80 MCI J24 SLN J102 ALS J44 RSK J64 TBC JASSE Q90 DNERO ANJLL4 |
| Aircraft | A339/H-SADE1E2E3GHIJ3J5M1P2RWXY/LB2D1 |
Departure
| Time | 2026-05-08 21:58 |
|---|---|
| Airport | John F. Kennedy International Airport (KJFK) |
Arrival
| Time | N/A |
|---|---|
| Airport | Los Angeles International Airport (KLAX) |
| Time | Latitude | Longitude | Altitude | Speed | Heading |
|---|---|---|---|---|---|
| 2026-05-08 20:46 | 40.64190 | -73.78184 | 26 ft | 0 kts | 272° |
| 2026-05-08 21:37 | 40.64189 | -73.78164 | 26 ft | 4 kts | 271° |
| 2026-05-08 21:37 | 40.64189 | -73.78129 | 28 ft | 4 kts | 269° |
| 2026-05-08 21:38 | 40.64190 | -73.78093 | 30 ft | 4 kts | 267° |
| 2026-05-08 21:38 | 40.64191 | -73.78058 | 30 ft | 4 kts | 265° |
| 2026-05-08 21:38 | 40.64193 | -73.78022 | 31 ft | 4 kts | 265° |
| 2026-05-08 21:38 | 40.64196 | -73.77987 | 31 ft | 4 kts | 267° |
| 2026-05-08 21:39 | 40.64197 | -73.77958 | 30 ft | 0 kts | 272° |
| 2026-05-08 21:46 | 40.64197 | -73.77959 | 30 ft | 1 kts | 272° |
| 2026-05-08 21:47 | 40.64197 | -73.77963 | 30 ft | 1 kts | 271° |
| 2026-05-08 21:47 | 40.64194 | -73.77978 | 30 ft | 2 kts | 257° |
| 2026-05-08 21:47 | 40.64178 | -73.77998 | 32 ft | 4 kts | 217° |
| 2026-05-08 21:47 | 40.64149 | -73.78016 | 29 ft | 5 kts | 199° |
| 2026-05-08 21:48 | 40.64111 | -73.78018 | 29 ft | 6 kts | 177° |
| 2026-05-08 21:48 | 40.64074 | -73.77995 | 32 ft | 7 kts | 154° |
| 2026-05-08 21:48 | 40.64015 | -73.77958 | 30 ft | 10 kts | 160° |
| 2026-05-08 21:48 | 40.63941 | -73.77942 | 30 ft | 11 kts | 172° |
| 2026-05-08 21:49 | 40.63860 | -73.77927 | 29 ft | 12 kts | 172° |
| 2026-05-08 21:49 | 40.63773 | -73.77911 | 29 ft | 13 kts | 172° |
| 2026-05-08 21:49 | 40.63682 | -73.77896 | 29 ft | 13 kts | 173° |
| 2026-05-08 21:49 | 40.63667 | -73.77893 | 31 ft | 0 kts | 173° |
| 2026-05-08 21:53 | 40.63649 | -73.77892 | 29 ft | 7 kts | 175° |
| 2026-05-08 21:53 | 40.63594 | -73.77877 | 28 ft | 8 kts | 159° |
| 2026-05-08 21:53 | 40.63546 | -73.77829 | 31 ft | 9 kts | 148° |
| 2026-05-08 21:53 | 40.63492 | -73.77838 | 26 ft | 8 kts | 206° |
| 2026-05-08 21:54 | 40.63441 | -73.77878 | 26 ft | 10 kts | 215° |
| 2026-05-08 21:54 | 40.63383 | -73.77922 | 27 ft | 8 kts | 194° |
| 2026-05-08 21:54 | 40.63345 | -73.77886 | 27 ft | 6 kts | 123° |
| 2026-05-08 21:54 | 40.63320 | -73.77831 | 28 ft | 8 kts | 122° |
| 2026-05-08 21:55 | 40.63285 | -73.77758 | 30 ft | 10 kts | 121° |
| 2026-05-08 21:55 | 40.63243 | -73.77665 | 29 ft | 13 kts | 120° |
| 2026-05-08 21:55 | 40.63193 | -73.77551 | 28 ft | 15 kts | 120° |
| 2026-05-08 21:56 | 40.63075 | -73.77288 | 26 ft | 18 kts | 120° |
| 2026-05-08 21:56 | 40.63013 | -73.77152 | 27 ft | 17 kts | 121° |
| 2026-05-08 21:56 | 40.62987 | -73.77103 | 25 ft | 6 kts | 131° |
| 2026-05-08 21:56 | 40.62937 | -73.77099 | 27 ft | 9 kts | 197° |
| 2026-05-08 21:57 | 40.62870 | -73.77139 | 28 ft | 11 kts | 208° |
| 2026-05-08 21:57 | 40.62820 | -73.77205 | 28 ft | 9 kts | 259° |
| 2026-05-08 21:57 | 40.62845 | -73.77283 | 28 ft | 14 kts | 298° |
| 2026-05-08 21:57 | 40.63009 | -73.77645 | 31 ft | 84 kts | 301° |
| 2026-05-08 21:58 | 40.63430 | -73.78570 | 28 ft | 148 kts | 301° |
| 2026-05-08 21:58 | 40.64012 | -73.79880 | 255 ft | 177 kts | 302° |
| 2026-05-08 21:58 | 40.64499 | -73.81392 | 866 ft | 182 kts | 283° |
| 2026-05-08 21:58 | 40.64448 | -73.83029 | 1669 ft | 182 kts | 255° |
| 2026-05-08 21:59 | 40.63835 | -73.84525 | 2330 ft | 192 kts | 238° |
| 2026-05-08 21:59 | 40.62864 | -73.85814 | 2907 ft | 204 kts | 222° |
| 2026-05-08 21:59 | 40.61715 | -73.86953 | 3547 ft | 210 kts | 219° |
| 2026-05-08 21:59 | 40.60470 | -73.87977 | 4214 ft | 215 kts | 207° |
| 2026-05-08 22:00 | 40.58985 | -73.88335 | 4929 ft | 223 kts | 183° |
| 2026-05-08 22:00 | 40.57458 | -73.87786 | 5552 ft | 235 kts | 160° |
| 2026-05-08 22:00 | 40.55920 | -73.86829 | 5873 ft | 254 kts | 162° |
| 2026-05-08 22:00 | 40.54179 | -73.86343 | 6062 ft | 261 kts | 187° |
| 2026-05-08 22:01 | 40.52427 | -73.86890 | 6499 ft | 259 kts | 208° |
| 2026-05-08 22:01 | 40.50740 | -73.87759 | 7086 ft | 262 kts | 207° |
| 2026-05-08 22:01 | 40.49033 | -73.88629 | 7719 ft | 264 kts | 207° |
| 2026-05-08 22:01 | 40.47308 | -73.89495 | 8322 ft | 267 kts | 207° |
| 2026-05-08 22:02 | 40.45562 | -73.90360 | 8936 ft | 270 kts | 207° |
| 2026-05-08 22:02 | 40.43792 | -73.91227 | 9569 ft | 273 kts | 207° |
| 2026-05-08 22:02 | 40.42108 | -73.92037 | 10090 ft | 277 kts | 207° |
| 2026-05-08 22:02 | 40.40236 | -73.92915 | 10290 ft | 295 kts | 207° |
| 2026-05-08 22:03 | 40.38251 | -73.93856 | 10451 ft | 312 kts | 207° |
| 2026-05-08 22:03 | 40.36157 | -73.94859 | 10679 ft | 326 kts | 207° |
| 2026-05-08 22:03 | 40.34039 | -73.95870 | 10815 ft | 328 kts | 207° |
| 2026-05-08 22:03 | 40.31970 | -73.97059 | 10896 ft | 321 kts | 220° |
| 2026-05-08 22:04 | 40.30418 | -73.99055 | 11392 ft | 308 kts | 243° |
| 2026-05-08 22:04 | 40.29616 | -74.01576 | 12017 ft | 297 kts | 263° |
| 2026-05-08 22:04 | 40.29367 | -74.04235 | 12649 ft | 294 kts | 269° |
| 2026-05-08 22:04 | 40.29158 | -74.06911 | 13278 ft | 296 kts | 267° |
| 2026-05-08 22:05 | 40.28820 | -74.09579 | 13892 ft | 298 kts | 264° |
| 2026-05-08 22:05 | 40.28357 | -74.12252 | 14355 ft | 303 kts | 262° |
| 2026-05-08 22:05 | 40.27813 | -74.14934 | 14830 ft | 307 kts | 261° |
| 2026-05-08 22:05 | 40.27229 | -74.17637 | 15303 ft | 310 kts | 260° |
| 2026-05-08 22:06 | 40.26630 | -74.20362 | 15767 ft | 313 kts | 259° |
| 2026-05-08 22:06 | 40.26024 | -74.23113 | 16221 ft | 316 kts | 259° |
| 2026-05-08 22:06 | 40.25416 | -74.25887 | 16687 ft | 319 kts | 259° |
| 2026-05-08 22:06 | 40.24802 | -74.28693 | 17103 ft | 322 kts | 259° |
| 2026-05-08 22:07 | 40.24183 | -74.31519 | 17567 ft | 324 kts | 259° |
| 2026-05-08 22:07 | 40.23559 | -74.34368 | 18050 ft | 327 kts | 258° |
| 2026-05-08 22:07 | 40.22929 | -74.37243 | 18491 ft | 329 kts | 259° |
| 2026-05-08 22:07 | 40.22297 | -74.40124 | 18973 ft | 330 kts | 259° |
| 2026-05-08 22:08 | 40.21670 | -74.42976 | 19425 ft | 331 kts | 259° |
| 2026-05-08 22:08 | 40.21025 | -74.45910 | 19926 ft | 332 kts | 259° |
| 2026-05-08 22:08 | 40.20418 | -74.48783 | 20365 ft | 332 kts | 262° |
| 2026-05-08 22:08 | 40.20032 | -74.51748 | 20831 ft | 330 kts | 267° |
| 2026-05-08 22:09 | 40.19818 | -74.54743 | 21284 ft | 331 kts | 268° |
| 2026-05-08 22:09 | 40.19596 | -74.57744 | 21753 ft | 333 kts | 268° |
| 2026-05-08 22:09 | 40.19364 | -74.60760 | 22233 ft | 334 kts | 268° |
| 2026-05-08 22:09 | 40.19126 | -74.63791 | 22704 ft | 336 kts | 267° |
| 2026-05-08 22:10 | 40.18886 | -74.66832 | 23174 ft | 337 kts | 267° |
| 2026-05-08 22:10 | 40.18643 | -74.69888 | 23616 ft | 339 kts | 267° |
| 2026-05-08 22:10 | 40.18399 | -74.72958 | 24036 ft | 340 kts | 267° |
| 2026-05-08 22:10 | 40.18154 | -74.76035 | 24448 ft | 340 kts | 267° |
| 2026-05-08 22:11 | 40.17907 | -74.79119 | 24853 ft | 342 kts | 268° |
| 2026-05-08 22:11 | 40.17659 | -74.82214 | 25260 ft | 343 kts | 268° |
| 2026-05-08 22:11 | 40.17410 | -74.85312 | 25664 ft | 344 kts | 268° |
| 2026-05-08 22:11 | 40.17159 | -74.88426 | 26063 ft | 345 kts | 268° |
| 2026-05-08 22:12 | 40.16906 | -74.91548 | 26440 ft | 346 kts | 268° |
| 2026-05-08 22:12 | 40.16651 | -74.94685 | 26845 ft | 347 kts | 268° |
| 2026-05-08 22:12 | 40.16395 | -74.97827 | 27234 ft | 349 kts | 268° |
| 2026-05-08 22:12 | 40.16137 | -75.00982 | 27618 ft | 350 kts | 268° |
| 2026-05-08 22:13 | 40.15877 | -75.04153 | 27993 ft | 351 kts | 268° |
| 2026-05-08 22:13 | 40.15615 | -75.07331 | 28345 ft | 352 kts | 268° |
| 2026-05-08 22:13 | 40.15352 | -75.10507 | 28757 ft | 352 kts | 268° |
| 2026-05-08 22:13 | 40.15088 | -75.13698 | 29075 ft | 354 kts | 268° |
| 2026-05-08 22:14 | 40.14821 | -75.16905 | 29419 ft | 355 kts | 268° |
| 2026-05-08 22:14 | 40.14553 | -75.20120 | 29771 ft | 357 kts | 268° |
| 2026-05-08 22:14 | 40.14282 | -75.23351 | 30085 ft | 358 kts | 268° |
| 2026-05-08 22:14 | 40.14010 | -75.26592 | 30383 ft | 360 kts | 268° |
| 2026-05-08 22:15 | 40.13735 | -75.29848 | 30679 ft | 361 kts | 268° |
| 2026-05-08 22:15 | 40.13459 | -75.33115 | 30983 ft | 362 kts | 268° |
| 2026-05-08 22:15 | 40.13180 | -75.36394 | 31275 ft | 364 kts | 268° |
| 2026-05-08 22:15 | 40.12900 | -75.39687 | 31547 ft | 366 kts | 268° |
| 2026-05-08 22:16 | 40.12616 | -75.43015 | 31742 ft | 370 kts | 267° |
| 2026-05-08 22:16 | 40.12330 | -75.46347 | 32126 ft | 368 kts | 267° |
| 2026-05-08 22:16 | 40.12043 | -75.49662 | 32512 ft | 367 kts | 267° |
| 2026-05-08 22:16 | 40.11760 | -75.52928 | 32897 ft | 365 kts | 267° |
| 2026-05-08 22:17 | 40.11474 | -75.56215 | 33284 ft | 363 kts | 267° |
| 2026-05-08 22:17 | 40.11190 | -75.59476 | 33697 ft | 361 kts | 268° |
| 2026-05-08 22:17 | 40.10902 | -75.62791 | 33827 ft | 365 kts | 268° |
| 2026-05-08 22:18 | 40.10323 | -75.69428 | 33943 ft | 372 kts | 267° |
| 2026-05-08 22:18 | 40.09729 | -75.76147 | 33949 ft | 377 kts | 267° |
| 2026-05-08 22:19 | 40.09125 | -75.82924 | 33951 ft | 374 kts | 267° |
| 2026-05-08 22:19 | 40.08520 | -75.89680 | 33948 ft | 375 kts | 267° |
| 2026-05-08 22:20 | 40.07914 | -75.96434 | 33940 ft | 375 kts | 267° |
| 2026-05-08 22:20 | 40.07402 | -76.02098 | 33946 ft | 375 kts | 267° |
| 2026-05-08 22:21 | 40.06790 | -76.08818 | 34071 ft | 374 kts | 267° |
| 2026-05-08 22:21 | 40.06483 | -76.12159 | 34416 ft | 368 kts | 267° |
| 2026-05-08 22:21 | 40.06179 | -76.15463 | 34641 ft | 366 kts | 267° |
| 2026-05-08 22:21 | 40.05877 | -76.18754 | 34834 ft | 365 kts | 266° |
| 2026-05-08 22:22 | 40.05574 | -76.22046 | 34960 ft | 365 kts | 266° |
| 2026-05-08 22:22 | 40.05270 | -76.25338 | 35114 ft | 365 kts | 266° |
| 2026-05-08 22:22 | 40.04965 | -76.28631 | 35237 ft | 366 kts | 266° |
| 2026-05-08 22:22 | 40.04659 | -76.31921 | 35375 ft | 366 kts | 266° |
| 2026-05-08 22:23 | 40.04351 | -76.35217 | 35517 ft | 366 kts | 266° |
| 2026-05-08 22:23 | 40.04042 | -76.38513 | 35641 ft | 366 kts | 266° |
| 2026-05-08 22:23 | 40.03732 | -76.41805 | 35778 ft | 366 kts | 266° |
| 2026-05-08 22:23 | 40.03421 | -76.45100 | 35901 ft | 366 kts | 266° |
| 2026-05-08 22:24 | 40.03109 | -76.48392 | 35938 ft | 366 kts | 266° |
| 2026-05-08 22:24 | 40.02482 | -76.54954 | 35939 ft | 362 kts | 266° |
| 2026-05-08 22:25 | 40.01856 | -76.61480 | 35937 ft | 363 kts | 266° |
| 2026-05-08 22:25 | 40.01224 | -76.68015 | 35937 ft | 363 kts | 266° |
| 2026-05-08 22:26 | 40.00589 | -76.74556 | 35935 ft | 363 kts | 266° |
| 2026-05-08 22:26 | 39.99950 | -76.81096 | 35930 ft | 363 kts | 266° |
| 2026-05-08 22:27 | 39.99307 | -76.87630 | 35943 ft | 363 kts | 266° |
| 2026-05-08 22:27 | 39.98663 | -76.94152 | 35946 ft | 363 kts | 266° |
| 2026-05-08 22:28 | 39.98014 | -77.00669 | 35944 ft | 362 kts | 265° |
| 2026-05-08 22:28 | 39.97370 | -77.07105 | 35943 ft | 362 kts | 265° |
| 2026-05-08 22:29 | 39.96715 | -77.13615 | 35945 ft | 362 kts | 265° |
| 2026-05-08 22:29 | 39.96057 | -77.20124 | 35944 ft | 362 kts | 265° |
| 2026-05-08 22:30 | 39.95397 | -77.26629 | 35954 ft | 362 kts | 266° |
| 2026-05-08 22:30 | 39.95159 | -77.33103 | 35827 ft | 357 kts | 272° |
| 2026-05-08 22:30 | 39.95273 | -77.36325 | 35406 ft | 355 kts | 274° |
| 2026-05-08 22:31 | 39.95390 | -77.39538 | 34821 ft | 354 kts | 274° |
| 2026-05-08 22:31 | 39.95499 | -77.42730 | 34501 ft | 349 kts | 274° |
| 2026-05-08 22:31 | 39.95603 | -77.45877 | 34180 ft | 346 kts | 274° |
| 2026-05-08 22:32 | 39.95809 | -77.52248 | 34019 ft | 359 kts | 274° |
| 2026-05-08 22:32 | 39.96019 | -77.58748 | 33956 ft | 358 kts | 274° |
| 2026-05-08 22:33 | 39.96222 | -77.65230 | 33954 ft | 358 kts | 273° |
| 2026-05-08 22:33 | 39.96420 | -77.71710 | 33955 ft | 358 kts | 273° |
| 2026-05-08 22:34 | 39.96616 | -77.78196 | 33954 ft | 358 kts | 273° |
| 2026-05-08 22:34 | 39.96807 | -77.84678 | 33959 ft | 358 kts | 273° |
| 2026-05-08 22:35 | 39.96996 | -77.91173 | 33963 ft | 359 kts | 273° |
| 2026-05-08 22:35 | 39.97181 | -77.97669 | 33971 ft | 359 kts | 272° |
| 2026-05-08 22:36 | 39.97361 | -78.04164 | 33969 ft | 358 kts | 272° |
| 2026-05-08 22:36 | 39.97539 | -78.10660 | 33957 ft | 358 kts | 272° |
| 2026-05-08 22:37 | 39.97712 | -78.17150 | 33959 ft | 358 kts | 272° |
| 2026-05-08 22:37 | 39.97883 | -78.23641 | 33961 ft | 359 kts | 272° |
| 2026-05-08 22:38 | 39.98049 | -78.30134 | 33963 ft | 358 kts | 272° |
| 2026-05-08 22:38 | 39.98211 | -78.36581 | 33962 ft | 358 kts | 272° |
| 2026-05-08 22:39 | 39.98371 | -78.43054 | 33961 ft | 356 kts | 272° |
| 2026-05-08 22:39 | 39.98526 | -78.49519 | 33953 ft | 356 kts | 272° |
| 2026-05-08 22:40 | 39.98676 | -78.55981 | 33950 ft | 355 kts | 272° |
| 2026-05-08 22:40 | 39.98821 | -78.62424 | 33955 ft | 357 kts | 272° |
| 2026-05-08 22:41 | 39.98967 | -78.68908 | 33952 ft | 358 kts | 272° |
| 2026-05-08 22:41 | 39.99111 | -78.75368 | 33960 ft | 356 kts | 272° |
| 2026-05-08 22:42 | 39.99247 | -78.81828 | 33955 ft | 356 kts | 272° |
| 2026-05-08 22:42 | 39.99380 | -78.88292 | 33979 ft | 358 kts | 272° |
| 2026-05-08 22:43 | 39.99511 | -78.94787 | 33971 ft | 358 kts | 272° |
| 2026-05-08 22:43 | 39.99637 | -79.01203 | 33975 ft | 356 kts | 272° |
| 2026-05-08 22:44 | 39.99761 | -79.07666 | 33975 ft | 356 kts | 271° |
| 2026-05-08 22:44 | 39.99879 | -79.14120 | 33970 ft | 356 kts | 271° |
| 2026-05-08 22:45 | 39.99994 | -79.20568 | 33968 ft | 356 kts | 271° |
| 2026-05-08 22:45 | 40.00106 | -79.27018 | 33966 ft | 355 kts | 271° |
| 2026-05-08 22:46 | 40.00215 | -79.33463 | 33956 ft | 355 kts | 271° |
| 2026-05-08 22:46 | 40.00319 | -79.39915 | 33950 ft | 356 kts | 271° |
| 2026-05-08 22:47 | 40.00421 | -79.46364 | 33950 ft | 355 kts | 271° |
| 2026-05-08 22:47 | 40.00516 | -79.52815 | 33934 ft | 356 kts | 271° |
| 2026-05-08 22:48 | 40.00610 | -79.59270 | 33896 ft | 356 kts | 271° |
| 2026-05-08 22:48 | 40.00700 | -79.65720 | 33927 ft | 356 kts | 271° |
| 2026-05-08 22:49 | 40.00786 | -79.72180 | 33953 ft | 357 kts | 271° |
| 2026-05-08 22:49 | 40.00910 | -79.81886 | 33939 ft | 357 kts | 271° |
| 2026-05-08 22:50 | 40.00988 | -79.88369 | 33952 ft | 358 kts | 271° |
| 2026-05-08 22:50 | 40.01062 | -79.94816 | 33952 ft | 358 kts | 270° |
| 2026-05-08 22:51 | 40.01132 | -80.01307 | 33958 ft | 358 kts | 270° |